PHGTL EHRD-EHRD
Flight info
| Callsign | PHGTL |
|---|---|
| Flight time | 0h 14m |
| Altitude | 1000 |
| Route | TRAFFIC PATTERN |
| Aircraft | BE58/L-SFG/S |
Departure
| Time | 2026-04-29 17:35 |
|---|---|
| Airport | Rotterdam The Hague Airport (EHRD) |
Arrival
| Time | 2026-04-29 17:50 |
|---|---|
| Airport | Rotterdam The Hague Airport (EHRD) |
| Time | Latitude | Longitude | Altitude | Speed | Heading |
|---|---|---|---|---|---|
| 2026-04-29 17:05 | 51.94942 | 4.42639 | -10 ft | 0 kts | 143° |
| 2026-04-29 17:06 | 51.94941 | 4.42639 | -10 ft | 2 kts | 143° |
| 2026-04-29 17:06 | 51.94947 | 4.42709 | -11 ft | 17 kts | 22° |
| 2026-04-29 17:06 | 51.94981 | 4.42727 | -11 ft | 0 kts | 23° |
| 2026-04-29 17:06 | 51.94980 | 4.42727 | -11 ft | 0 kts | 23° |
| 2026-04-29 17:07 | 51.94942 | 4.42642 | -10 ft | 0 kts | 144° |
| 2026-04-29 17:08 | 51.94939 | 4.42641 | -10 ft | 0 kts | 144° |
| 2026-04-29 17:19 | 51.94940 | 4.42641 | -10 ft | 0 kts | 143° |
| 2026-04-29 17:21 | 51.94939 | 4.42641 | -10 ft | 0 kts | 142° |
| 2026-04-29 17:22 | 51.94947 | 4.42682 | -11 ft | 8 kts | 54° |
| 2026-04-29 17:22 | 51.94997 | 4.42759 | -11 ft | 10 kts | 58° |
| 2026-04-29 17:22 | 51.95030 | 4.42840 | -11 ft | 7 kts | 55° |
| 2026-04-29 17:22 | 51.95066 | 4.42933 | -11 ft | 12 kts | 58° |
| 2026-04-29 17:23 | 51.95121 | 4.43072 | -10 ft | 13 kts | 53° |
| 2026-04-29 17:23 | 51.95168 | 4.43105 | -9 ft | 6 kts | 350° |
| 2026-04-29 17:23 | 51.95195 | 4.43099 | -9 ft | 0 kts | 2° |
| 2026-04-29 17:26 | 51.95199 | 4.43099 | -9 ft | 4 kts | 3° |
| 2026-04-29 17:26 | 51.95284 | 4.43106 | -9 ft | 19 kts | 7° |
| 2026-04-29 17:26 | 51.95389 | 4.43277 | -8 ft | 45 kts | 57° |
| 2026-04-29 17:27 | 51.95673 | 4.43986 | 132 ft | 91 kts | 57° |
| 2026-04-29 17:27 | 51.96043 | 4.44986 | 405 ft | 112 kts | 58° |
| 2026-04-29 17:27 | 51.96755 | 4.45182 | 424 ft | 146 kts | 304° |
| 2026-04-29 17:27 | 51.96563 | 4.43720 | 511 ft | 134 kts | 239° |
| 2026-04-29 17:28 | 51.96093 | 4.42496 | 428 ft | 123 kts | 236° |
| 2026-04-29 17:28 | 51.95589 | 4.41420 | 346 ft | 105 kts | 192° |
| 2026-04-29 17:28 | 51.95054 | 4.41696 | 332 ft | 77 kts | 112° |
| 2026-04-29 17:28 | 51.95114 | 4.42558 | 105 ft | 76 kts | 65° |
| 2026-04-29 17:29 | 51.95388 | 4.43266 | 1 ft | 72 kts | 66° |
| 2026-04-29 17:29 | 51.95630 | 4.43883 | -11 ft | 76 kts | 58° |
| 2026-04-29 17:29 | 51.95952 | 4.44718 | 196 ft | 95 kts | 67° |
| 2026-04-29 17:29 | 51.96320 | 4.45614 | 409 ft | 91 kts | 52° |
| 2026-04-29 17:30 | 51.96912 | 4.45481 | 386 ft | 119 kts | 307° |
| 2026-04-29 17:30 | 51.96943 | 4.44190 | 401 ft | 118 kts | 238° |
| 2026-04-29 17:30 | 51.96438 | 4.43107 | 392 ft | 119 kts | 220° |
| 2026-04-29 17:30 | 51.95829 | 4.42152 | 382 ft | 121 kts | 225° |
| 2026-04-29 17:31 | 51.95211 | 4.41502 | 372 ft | 91 kts | 157° |
| 2026-04-29 17:31 | 51.94971 | 4.42151 | 264 ft | 88 kts | 56° |
| 2026-04-29 17:31 | 51.95258 | 4.42951 | 49 ft | 79 kts | 59° |
| 2026-04-29 17:31 | 51.95542 | 4.43662 | -11 ft | 64 kts | 55° |
| 2026-04-29 17:32 | 51.95829 | 4.44374 | 62 ft | 91 kts | 56° |
| 2026-04-29 17:32 | 51.96229 | 4.45070 | 147 ft | 79 kts | 45° |
| 2026-04-29 17:32 | 51.96704 | 4.45341 | 239 ft | 84 kts | 9° |
| 2026-04-29 17:32 | 51.97190 | 4.44671 | 462 ft | 122 kts | 282° |
| 2026-04-29 17:33 | 51.96766 | 4.43440 | 583 ft | 135 kts | 221° |
| 2026-04-29 17:33 | 51.96155 | 4.42272 | 448 ft | 129 kts | 226° |
| 2026-04-29 17:33 | 51.95623 | 4.41251 | 334 ft | 116 kts | 224° |
| 2026-04-29 17:33 | 51.95017 | 4.41015 | 464 ft | 83 kts | 132° |
| 2026-04-29 17:34 | 51.94909 | 4.41883 | 202 ft | 85 kts | 86° |
| 2026-04-29 17:34 | 51.95182 | 4.42724 | 77 ft | 88 kts | 69° |
| 2026-04-29 17:34 | 51.95499 | 4.43545 | -9 ft | 74 kts | 54° |
| 2026-04-29 17:34 | 51.95818 | 4.44372 | 104 ft | 92 kts | 71° |
| 2026-04-29 17:35 | 51.96587 | 4.44942 | 436 ft | 97 kts | 341° |
| 2026-04-29 17:35 | 51.96612 | 4.43363 | 594 ft | 129 kts | 237° |
| 2026-04-29 17:35 | 51.96105 | 4.42173 | 577 ft | 126 kts | 231° |
| 2026-04-29 17:36 | 51.95529 | 4.41159 | 516 ft | 108 kts | 192° |
| 2026-04-29 17:36 | 51.94923 | 4.41322 | 335 ft | 87 kts | 120° |
| 2026-04-29 17:36 | 51.94977 | 4.42187 | 210 ft | 89 kts | 69° |
| 2026-04-29 17:36 | 51.95313 | 4.43081 | 23 ft | 92 kts | 56° |
| 2026-04-29 17:37 | 51.95595 | 4.43790 | -11 ft | 75 kts | 56° |
| 2026-04-29 17:37 | 51.95939 | 4.44656 | 190 ft | 97 kts | 60° |
| 2026-04-29 17:37 | 51.96343 | 4.45604 | 435 ft | 103 kts | 53° |
| 2026-04-29 17:37 | 51.97001 | 4.45642 | 566 ft | 125 kts | 319° |
| 2026-04-29 17:38 | 51.96968 | 4.44273 | 531 ft | 133 kts | 242° |
| 2026-04-29 17:38 | 51.96464 | 4.42952 | 459 ft | 138 kts | 239° |
| 2026-04-29 17:38 | 51.95989 | 4.41675 | 451 ft | 123 kts | 234° |
| 2026-04-29 17:38 | 51.95387 | 4.40948 | 515 ft | 96 kts | 161° |
| 2026-04-29 17:39 | 51.95011 | 4.41614 | 259 ft | 81 kts | 104° |
| 2026-04-29 17:39 | 51.95063 | 4.42432 | 139 ft | 80 kts | 58° |
| 2026-04-29 17:39 | 51.95363 | 4.43206 | 18 ft | 78 kts | 61° |
| 2026-04-29 17:39 | 51.95640 | 4.43914 | -8 ft | 89 kts | 54° |
| 2026-04-29 17:40 | 51.95995 | 4.44845 | 211 ft | 102 kts | 66° |
| 2026-04-29 17:40 | 51.96436 | 4.45715 | 573 ft | 104 kts | 43° |
| 2026-04-29 17:40 | 51.97185 | 4.45269 | 571 ft | 142 kts | 298° |
| 2026-04-29 17:40 | 51.96984 | 4.43879 | 440 ft | 122 kts | 236° |
| 2026-04-29 17:41 | 51.96550 | 4.42779 | 435 ft | 113 kts | 230° |
| 2026-04-29 17:41 | 51.96064 | 4.41720 | 397 ft | 121 kts | 229° |
| 2026-04-29 17:41 | 51.95456 | 4.41048 | 370 ft | 97 kts | 158° |
| 2026-04-29 17:41 | 51.94978 | 4.41685 | 245 ft | 85 kts | 102° |
| 2026-04-29 17:42 | 51.95101 | 4.42537 | 121 ft | 82 kts | 64° |
| 2026-04-29 17:42 | 51.95409 | 4.43326 | -3 ft | 77 kts | 55° |
| 2026-04-29 17:42 | 51.95672 | 4.43980 | -11 ft | 79 kts | 57° |
| 2026-04-29 17:42 | 51.96019 | 4.44859 | 185 ft | 99 kts | 56° |
| 2026-04-29 17:43 | 51.96507 | 4.45643 | 469 ft | 109 kts | 20° |
| 2026-04-29 17:43 | 51.97191 | 4.44903 | 469 ft | 153 kts | 281° |
| 2026-04-29 17:43 | 51.96776 | 4.43377 | 389 ft | 141 kts | 230° |
| 2026-04-29 17:43 | 51.96220 | 4.42136 | 468 ft | 130 kts | 227° |
| 2026-04-29 17:44 | 51.95652 | 4.41163 | 373 ft | 97 kts | 184° |
| 2026-04-29 17:44 | 51.95079 | 4.41463 | 290 ft | 91 kts | 126° |
| 2026-04-29 17:44 | 51.95061 | 4.42389 | 128 ft | 88 kts | 73° |
| 2026-04-29 17:44 | 51.95355 | 4.43181 | 3 ft | 81 kts | 68° |
| 2026-04-29 17:45 | 51.95626 | 4.43869 | -11 ft | 68 kts | 57° |
| 2026-04-29 17:45 | 51.95931 | 4.44661 | 229 ft | 88 kts | 59° |
| 2026-04-29 17:45 | 51.96267 | 4.45534 | 472 ft | 104 kts | 40° |
| 2026-04-29 17:45 | 51.96778 | 4.44686 | 405 ft | 145 kts | 264° |
| 2026-04-29 17:46 | 51.96406 | 4.43390 | 354 ft | 119 kts | 244° |
| 2026-04-29 17:46 | 51.96011 | 4.42174 | 490 ft | 128 kts | 244° |
| 2026-04-29 17:46 | 51.95474 | 4.41164 | 265 ft | 112 kts | 182° |
| 2026-04-29 17:46 | 51.94922 | 4.41695 | 201 ft | 89 kts | 112° |
| 2026-04-29 17:47 | 51.95086 | 4.42545 | 101 ft | 91 kts | 63° |
| 2026-04-29 17:47 | 51.95439 | 4.43402 | -4 ft | 77 kts | 58° |
| 2026-04-29 17:47 | 51.95708 | 4.44081 | -9 ft | 86 kts | 61° |
| 2026-04-29 17:47 | 51.96001 | 4.44902 | 363 ft | 81 kts | 64° |
| 2026-04-29 17:48 | 51.96418 | 4.45579 | 547 ft | 111 kts | 12° |
| 2026-04-29 17:48 | 51.96891 | 4.44662 | 448 ft | 123 kts | 247° |
| 2026-04-29 17:48 | 51.96511 | 4.43473 | 454 ft | 122 kts | 237° |
| 2026-04-29 17:48 | 51.96025 | 4.42255 | 498 ft | 133 kts | 232° |
| 2026-04-29 17:49 | 51.95477 | 4.41211 | 451 ft | 112 kts | 181° |
| 2026-04-29 17:49 | 51.94991 | 4.41811 | 354 ft | 92 kts | 90° |
| 2026-04-29 17:49 | 51.95184 | 4.42744 | 75 ft | 86 kts | 54° |
| 2026-04-29 17:49 | 51.95483 | 4.43507 | -8 ft | 68 kts | 58° |
| 2026-04-29 17:50 | 51.95698 | 4.44046 | -11 ft | 47 kts | 59° |
| 2026-04-29 17:50 | 51.95854 | 4.44434 | -14 ft | 39 kts | 57° |
| 2026-04-29 17:50 | 51.95900 | 4.44687 | -15 ft | 13 kts | 133° |
| 2026-04-29 17:50 | 51.95840 | 4.44749 | -15 ft | 3 kts | 142° |
| 2026-04-29 17:51 | 51.95819 | 4.44770 | -15 ft | 3 kts | 149° |
| 2026-04-29 17:51 | 51.95783 | 4.44751 | -15 ft | 11 kts | 234° |
| 2026-04-29 17:51 | 51.95724 | 4.44607 | -16 ft | 23 kts | 237° |
| 2026-04-29 17:51 | 51.95632 | 4.44376 | -15 ft | 26 kts | 236° |
| 2026-04-29 17:52 | 51.95517 | 4.44090 | -11 ft | 30 kts | 237° |
| 2026-04-29 17:52 | 51.95408 | 4.43814 | -11 ft | 29 kts | 239° |
| 2026-04-29 17:52 | 51.95303 | 4.43553 | -11 ft | 26 kts | 235° |
| 2026-04-29 17:52 | 51.95214 | 4.43466 | -9 ft | 22 kts | 145° |
| 2026-04-29 17:53 | 51.95033 | 4.43652 | -11 ft | 27 kts | 146° |
| 2026-04-29 17:53 | 51.94960 | 4.43792 | -11 ft | 11 kts | 82° |
| 2026-04-29 17:53 | 51.94977 | 4.43849 | -11 ft | 1 kts | 326° |
| 2026-04-29 17:53 | 51.94982 | 4.43842 | -11 ft | 0 kts | 327° |
| 2026-04-29 17:56 | 51.94985 | 4.43806 | -11 ft | 15 kts | 237° |
| 2026-04-29 17:56 | 51.95126 | 4.43637 | -11 ft | 39 kts | 328° |
| 2026-04-29 17:56 | 51.95266 | 4.43464 | -10 ft | 14 kts | 257° |
| 2026-04-29 17:56 | 51.95220 | 4.43344 | -8 ft | 12 kts | 237° |
| 2026-04-29 17:57 | 51.95173 | 4.43231 | -8 ft | 11 kts | 238° |
| 2026-04-29 17:57 | 51.95159 | 4.43114 | -9 ft | 11 kts | 309° |
| 2026-04-29 17:57 | 51.95194 | 4.43098 | -9 ft | 0 kts | 6° |
| 2026-04-29 17:57 | 51.95195 | 4.43098 | -9 ft | 2 kts | 6° |
| 2026-04-29 17:58 | 51.95273 | 4.43104 | -9 ft | 17 kts | 3° |
| 2026-04-29 17:58 | 51.95343 | 4.43161 | -8 ft | 0 kts | 58° |
| 2026-04-29 17:58 | 51.95347 | 4.43168 | -8 ft | 12 kts | 57° |
| 2026-04-29 17:59 | 51.95567 | 4.43720 | -5 ft | 91 kts | 62° |
| 2026-04-29 17:59 | 51.95924 | 4.44613 | 297 ft | 96 kts | 55° |
| 2026-04-29 17:59 | 51.96311 | 4.45529 | 496 ft | 100 kts | 43° |
| 2026-04-29 17:59 | 51.96959 | 4.45307 | 407 ft | 122 kts | 298° |
| 2026-04-29 18:00 | 51.96827 | 4.43998 | 388 ft | 123 kts | 238° |
| 2026-04-29 18:00 | 51.96310 | 4.42817 | 384 ft | 127 kts | 227° |
| 2026-04-29 18:00 | 51.95788 | 4.41652 | 320 ft | 123 kts | 225° |
| 2026-04-29 18:00 | 51.95153 | 4.41409 | 313 ft | 95 kts | 137° |
| 2026-04-29 18:01 | 51.95027 | 4.42301 | 171 ft | 92 kts | 69° |
| 2026-04-29 18:01 | 51.95336 | 4.43136 | 3 ft | 78 kts | 61° |
| 2026-04-29 18:01 | 51.95582 | 4.43759 | -11 ft | 64 kts | 56° |
| 2026-04-29 18:01 | 51.95887 | 4.44563 | 151 ft | 91 kts | 60° |
| 2026-04-29 18:02 | 51.96262 | 4.45391 | 469 ft | 98 kts | 31° |
| 2026-04-29 18:02 | 51.96910 | 4.44777 | 493 ft | 132 kts | 296° |
| 2026-04-29 18:02 | 51.96677 | 4.43410 | 414 ft | 128 kts | 231° |
| 2026-04-29 18:02 | 51.96167 | 4.42239 | 386 ft | 125 kts | 228° |
| 2026-04-29 18:03 | 51.95549 | 4.41311 | 409 ft | 125 kts | 186° |
| 2026-04-29 18:03 | 51.94948 | 4.41820 | 318 ft | 89 kts | 96° |
| 2026-04-29 18:03 | 51.95209 | 4.42825 | 38 ft | 87 kts | 65° |
| 2026-04-29 18:03 | 51.95501 | 4.43556 | -9 ft | 68 kts | 43° |
| 2026-04-29 18:04 | 51.95723 | 4.44131 | -12 ft | 78 kts | 58° |
| 2026-04-29 18:04 | 51.96090 | 4.45047 | 172 ft | 98 kts | 70° |
| 2026-04-29 18:04 | 51.96558 | 4.45683 | 639 ft | 100 kts | 1° |
| 2026-04-29 18:04 | 51.96918 | 4.44543 | 531 ft | 153 kts | 250° |
| 2026-04-29 18:05 | 51.96478 | 4.43128 | 434 ft | 125 kts | 237° |
| 2026-04-29 18:05 | 51.96008 | 4.41998 | 436 ft | 118 kts | 231° |
| 2026-04-29 18:05 | 51.95386 | 4.41299 | 304 ft | 100 kts | 161° |
| 2026-04-29 18:05 | 51.94964 | 4.41920 | 243 ft | 83 kts | 84° |
| 2026-04-29 18:06 | 51.95198 | 4.42791 | 60 ft | 82 kts | 65° |
| 2026-04-29 18:06 | 51.95490 | 4.43528 | -8 ft | 71 kts | 56° |
| 2026-04-29 18:06 | 51.95730 | 4.44128 | -12 ft | 69 kts | 55° |
| 2026-04-29 18:06 | 51.96044 | 4.44943 | 208 ft | 89 kts | 69° |
| 2026-04-29 18:07 | 51.96464 | 4.45725 | 453 ft | 109 kts | 13° |
| 2026-04-29 18:07 | 51.96838 | 4.44682 | 459 ft | 134 kts | 239° |
| 2026-04-29 18:07 | 51.96423 | 4.43365 | 411 ft | 126 kts | 241° |
| 2026-04-29 18:07 | 51.95955 | 4.42217 | 373 ft | 117 kts | 236° |
| 2026-04-29 18:08 | 51.95372 | 4.41373 | 321 ft | 108 kts | 172° |
| 2026-04-29 18:08 | 51.94907 | 4.41947 | 240 ft | 85 kts | 95° |
| 2026-04-29 18:08 | 51.95186 | 4.42766 | 63 ft | 79 kts | 60° |
| 2026-04-29 18:08 | 51.95474 | 4.43484 | 12 ft | 79 kts | 64° |
| 2026-04-29 18:09 | 51.95803 | 4.44328 | 244 ft | 94 kts | 63° |
| 2026-04-29 18:09 | 51.96133 | 4.45274 | 473 ft | 103 kts | 60° |
| 2026-04-29 18:09 | 51.96761 | 4.45454 | 536 ft | 148 kts | 307° |
| 2026-04-29 18:09 | 51.96568 | 4.43783 | 390 ft | 157 kts | 239° |
| 2026-04-29 18:10 | 51.96019 | 4.42307 | 389 ft | 149 kts | 232° |
| 2026-04-29 18:10 | 51.95426 | 4.41369 | 243 ft | 91 kts | 169° |
| 2026-04-29 18:10 | 51.94991 | 4.41881 | 217 ft | 81 kts | 97° |
| 2026-04-29 18:10 | 51.95188 | 4.42777 | 58 ft | 90 kts | 58° |
| 2026-04-29 18:11 | 51.95513 | 4.43589 | -10 ft | 73 kts | 52° |
| 2026-04-29 18:11 | 51.95775 | 4.44234 | -7 ft | 84 kts | 68° |
| 2026-04-29 18:11 | 51.96070 | 4.45074 | 303 ft | 88 kts | 65° |
| 2026-04-29 18:11 | 51.96506 | 4.45818 | 516 ft | 115 kts | 11° |
| 2026-04-29 18:12 | 51.96865 | 4.44651 | 439 ft | 141 kts | 242° |
| 2026-04-29 18:12 | 51.96368 | 4.43258 | 432 ft | 147 kts | 238° |
| 2026-04-29 18:12 | 51.95819 | 4.41927 | 327 ft | 132 kts | 231° |
| 2026-04-29 18:12 | 51.95209 | 4.41339 | 332 ft | 87 kts | 157° |
| 2026-04-29 18:13 | 51.94978 | 4.42153 | 139 ft | 98 kts | 72° |
| 2026-04-29 18:13 | 51.95312 | 4.43077 | 25 ft | 91 kts | 63° |
| 2026-04-29 18:13 | 51.95614 | 4.43844 | -11 ft | 77 kts | 61° |
| 2026-04-29 18:13 | 51.95948 | 4.44708 | 202 ft | 95 kts | 65° |
| 2026-04-29 18:14 | 51.96301 | 4.45638 | 450 ft | 102 kts | 50° |
| 2026-04-29 18:14 | 51.96879 | 4.45146 | 506 ft | 133 kts | 275° |
| 2026-04-29 18:14 | 51.96521 | 4.43847 | 408 ft | 119 kts | 229° |
| 2026-04-29 18:14 | 51.96030 | 4.42721 | 382 ft | 120 kts | 227° |
| 2026-04-29 18:15 | 51.95533 | 4.41683 | 323 ft | 107 kts | 215° |
| 2026-04-29 18:15 | 51.94967 | 4.41757 | 215 ft | 86 kts | 110° |
| 2026-04-29 18:15 | 51.95147 | 4.42669 | 75 ft | 88 kts | 64° |
| 2026-04-29 18:15 | 51.95465 | 4.43468 | -1 ft | 76 kts | 55° |
| 2026-04-29 18:16 | 51.95721 | 4.44108 | -12 ft | 55 kts | 55° |
| 2026-04-29 18:16 | 51.95896 | 4.44544 | -15 ft | 35 kts | 59° |
| 2026-04-29 18:16 | 51.95868 | 4.44717 | -15 ft | 16 kts | 146° |
| 2026-04-29 18:16 | 51.95758 | 4.44692 | -15 ft | 19 kts | 233° |
| 2026-04-29 18:17 | 51.95689 | 4.44524 | -15 ft | 17 kts | 234° |
| 2026-04-29 18:17 | 51.95621 | 4.44352 | -15 ft | 18 kts | 236° |
| 2026-04-29 18:17 | 51.95515 | 4.44089 | -11 ft | 32 kts | 237° |
| 2026-04-29 18:17 | 51.95390 | 4.43781 | -11 ft | 33 kts | 234° |
| 2026-04-29 18:18 | 51.95262 | 4.43452 | -10 ft | 32 kts | 236° |
| 2026-04-29 18:18 | 51.95152 | 4.43169 | -8 ft | 27 kts | 242° |
| 2026-04-29 18:18 | 51.95056 | 4.42908 | -11 ft | 25 kts | 238° |
| 2026-04-29 18:18 | 51.94972 | 4.42723 | -11 ft | 13 kts | 195° |
| 2026-04-29 18:19 | 51.94958 | 4.42667 | -11 ft | 4 kts | 230° |
| 2026-04-29 18:19 | 51.94947 | 4.42658 | -10 ft | 0 kts | 146° |
| 2026-04-29 18:19 | 51.94946 | 4.42660 | -10 ft | 0 kts | 145° |
| 2026-04-29 18:44 | 51.94949 | 4.42658 | -10 ft | 0 kts | 147° |
| 2026-04-29 18:45 | 51.94948 | 4.42659 | -10 ft | 0 kts | 147° |
| 2026-04-29 18:45 | 51.94945 | 4.42675 | -11 ft | 9 kts | 66° |
| 2026-04-29 18:45 | 51.94994 | 4.42753 | -11 ft | 12 kts | 56° |
| 2026-04-29 18:46 | 51.95038 | 4.42861 | -11 ft | 11 kts | 57° |
| 2026-04-29 18:46 | 51.95081 | 4.42971 | -11 ft | 14 kts | 58° |
| 2026-04-29 18:46 | 51.95128 | 4.43090 | -10 ft | 11 kts | 60° |
| 2026-04-29 18:46 | 51.95158 | 4.43119 | -9 ft | 4 kts | 312° |
| 2026-04-29 18:47 | 51.95171 | 4.43102 | -9 ft | 0 kts | 341° |
| 2026-04-29 18:48 | 51.95172 | 4.43102 | -9 ft | 1 kts | 342° |
| 2026-04-29 18:48 | 51.95198 | 4.43099 | -9 ft | 1 kts | 3° |
| 2026-04-29 18:48 | 51.95199 | 4.43099 | -9 ft | 0 kts | 3° |
| 2026-04-29 18:51 | 51.95240 | 4.43102 | -9 ft | 18 kts | 2° |
| 2026-04-29 18:51 | 51.95344 | 4.43168 | -8 ft | 15 kts | 57° |
| 2026-04-29 18:52 | 51.95370 | 4.43228 | -8 ft | 0 kts | 56° |
| 2026-04-29 18:53 | 51.95441 | 4.43405 | -8 ft | 60 kts | 59° |
| 2026-04-29 18:53 | 51.95757 | 4.44207 | 119 ft | 97 kts | 57° |
| 2026-04-29 18:54 | 51.96080 | 4.44947 | 321 ft | 105 kts | 58° |
| 2026-04-29 18:54 | 51.96814 | 4.45514 | 393 ft | 111 kts | 347° |
| 2026-04-29 18:54 | 51.97189 | 4.44479 | 403 ft | 129 kts | 243° |
| 2026-04-29 18:54 | 51.96705 | 4.43227 | 486 ft | 123 kts | 229° |
| 2026-04-29 18:55 | 51.96246 | 4.42247 | 418 ft | 108 kts | 225° |
| 2026-04-29 18:55 | 51.95734 | 4.41307 | 411 ft | 115 kts | 210° |
| 2026-04-29 18:55 | 51.95140 | 4.41327 | 307 ft | 90 kts | 134° |
| 2026-04-29 18:55 | 51.95011 | 4.42205 | 135 ft | 89 kts | 71° |
| 2026-04-29 18:56 | 51.95292 | 4.43031 | 22 ft | 83 kts | 58° |
| 2026-04-29 18:56 | 51.95580 | 4.43753 | -11 ft | 85 kts | 55° |
| 2026-04-29 18:56 | 51.95935 | 4.44652 | 234 ft | 97 kts | 59° |
| 2026-04-29 18:56 | 51.96420 | 4.45377 | 537 ft | 107 kts | 358° |
| 2026-04-29 18:57 | 51.97080 | 4.44687 | 519 ft | 114 kts | 315° |
| 2026-04-29 18:57 | 51.97098 | 4.43507 | 549 ft | 115 kts | 233° |
| 2026-04-29 18:57 | 51.96699 | 4.42456 | 605 ft | 116 kts | 229° |
| 2026-04-29 18:57 | 51.96466 | 4.41203 | 741 ft | 132 kts | 287° |
| 2026-04-29 18:58 | 51.97191 | 4.40452 | 565 ft | 136 kts | 22° |
| 2026-04-29 18:58 | 51.97516 | 4.41558 | 689 ft | 122 kts | 123° |
| 2026-04-29 18:58 | 51.96656 | 4.41434 | 588 ft | 164 kts | 228° |
| 2026-04-29 18:58 | 51.96881 | 4.40044 | 568 ft | 129 kts | 8° |
| 2026-04-29 18:59 | 51.97087 | 4.40928 | 545 ft | 114 kts | 136° |
| 2026-04-29 18:59 | 51.96356 | 4.40566 | 586 ft | 139 kts | 251° |
| 2026-04-29 18:59 | 51.96779 | 4.39389 | 535 ft | 127 kts | 359° |
| 2026-04-29 18:59 | 51.97351 | 4.40015 | 492 ft | 107 kts | 83° |
| 2026-04-29 19:00 | 51.96936 | 4.41010 | 422 ft | 128 kts | 156° |
| 2026-04-29 19:00 | 51.96115 | 4.40681 | 536 ft | 137 kts | 222° |
| 2026-04-29 19:00 | 51.96043 | 4.39235 | 597 ft | 130 kts | 324° |
| 2026-04-29 19:00 | 51.96469 | 4.39618 | 695 ft | 103 kts | 115° |
| 2026-04-29 19:01 | 51.95777 | 4.40187 | 662 ft | 118 kts | 161° |
| 2026-04-29 19:01 | 51.95120 | 4.40491 | 434 ft | 90 kts | 141° |
| 2026-04-29 19:01 | 51.94772 | 4.41191 | 332 ft | 78 kts | 95° |
| 2026-04-29 19:01 | 51.94929 | 4.42031 | 174 ft | 84 kts | 59° |
| 2026-04-29 19:02 | 51.95199 | 4.42790 | 70 ft | 76 kts | 60° |
| 2026-04-29 19:02 | 51.95477 | 4.43493 | -3 ft | 77 kts | 61° |
| 2026-04-29 19:02 | 51.95734 | 4.44139 | -12 ft | 64 kts | 58° |
| 2026-04-29 19:02 | 51.96036 | 4.44914 | 140 ft | 94 kts | 65° |
| 2026-04-29 19:03 | 51.96450 | 4.45700 | 586 ft | 91 kts | 19° |
| 2026-04-29 19:03 | 51.97014 | 4.44972 | 754 ft | 133 kts | 284° |
| 2026-04-29 19:03 | 51.96741 | 4.43470 | 516 ft | 153 kts | 236° |
| 2026-04-29 19:03 | 51.96257 | 4.42064 | 558 ft | 138 kts | 263° |
| 2026-04-29 19:04 | 51.96723 | 4.41153 | 847 ft | 99 kts | 39° |
| 2026-04-29 19:04 | 51.96519 | 4.41965 | 538 ft | 140 kts | 167° |
| 2026-04-29 19:04 | 51.95670 | 4.41204 | 521 ft | 130 kts | 206° |
| 2026-04-29 19:04 | 51.95021 | 4.41305 | 371 ft | 90 kts | 138° |
| 2026-04-29 19:05 | 51.94917 | 4.42047 | 197 ft | 85 kts | 65° |
| 2026-04-29 19:05 | 51.95253 | 4.42921 | 44 ft | 92 kts | 58° |
| 2026-04-29 19:05 | 51.95556 | 4.43689 | -11 ft | 79 kts | 58° |
| 2026-04-29 19:05 | 51.95905 | 4.44572 | 69 ft | 109 kts | 60° |
| 2026-04-29 19:06 | 51.96409 | 4.45461 | 352 ft | 112 kts | 15° |
| 2026-04-29 19:06 | 51.96867 | 4.44489 | 463 ft | 144 kts | 253° |
| 2026-04-29 19:06 | 51.95924 | 4.41850 | 431 ft | 128 kts | 233° |
| 2026-04-29 19:07 | 51.95271 | 4.41349 | 344 ft | 93 kts | 149° |
| 2026-04-29 19:07 | 51.94961 | 4.41736 | 270 ft | 83 kts | 106° |
| 2026-04-29 19:07 | 51.95238 | 4.42889 | 45 ft | 88 kts | 61° |
| 2026-04-29 19:07 | 51.95554 | 4.43686 | -10 ft | 82 kts | 59° |
| 2026-04-29 19:08 | 51.95834 | 4.44390 | -14 ft | 86 kts | 57° |
| 2026-04-29 19:08 | 51.96212 | 4.45304 | 164 ft | 105 kts | 51° |
| 2026-04-29 19:08 | 51.96874 | 4.45222 | 447 ft | 131 kts | 304° |
| 2026-04-29 19:08 | 51.96714 | 4.43869 | 560 ft | 144 kts | 234° |
| 2026-04-29 19:09 | 51.96166 | 4.42532 | 580 ft | 146 kts | 231° |
| 2026-04-29 19:09 | 51.95654 | 4.41326 | 561 ft | 119 kts | 228° |
| 2026-04-29 19:09 | 51.95181 | 4.40290 | 507 ft | 114 kts | 246° |
| 2026-04-29 19:09 | 51.95380 | 4.39201 | 686 ft | 100 kts | 1° |
| 2026-04-29 19:10 | 51.95464 | 4.39758 | 705 ft | 115 kts | 167° |
| 2026-04-29 19:10 | 51.94709 | 4.39155 | 739 ft | 119 kts | 188° |
| 2026-04-29 19:10 | 51.94121 | 4.39306 | 538 ft | 85 kts | 142° |
| 2026-04-29 19:10 | 51.93854 | 4.39870 | 577 ft | 71 kts | 73° |
| 2026-04-29 19:11 | 51.94275 | 4.40441 | 508 ft | 93 kts | 52° |
| 2026-04-29 19:11 | 51.94553 | 4.41184 | 320 ft | 80 kts | 65° |
| 2026-04-29 19:11 | 51.94830 | 4.41879 | 230 ft | 73 kts | 63° |
| 2026-04-29 19:11 | 51.95186 | 4.42775 | 57 ft | 80 kts | 59° |
| 2026-04-29 19:12 | 51.95483 | 4.43511 | -5 ft | 74 kts | 60° |
| 2026-04-29 19:12 | 51.95726 | 4.44124 | -12 ft | 53 kts | 56° |
| 2026-04-29 19:12 | 51.95896 | 4.44543 | -15 ft | 34 kts | 58° |
| 2026-04-29 19:12 | 51.95880 | 4.44705 | -14 ft | 22 kts | 145° |
| 2026-04-29 19:13 | 51.95841 | 4.44747 | -15 ft | 0 kts | 148° |